Ballarat, Australia
Current Conditions -  °F | °C
As of 7:00 PM on Saturday 01 Nov 2014 (Local Time) from YMAV Reporting Station
Broken Clouds Broken Clouds  
Wind Chill: 54°   Ceiling: 9000
Heat Index: 54°   Visibility: 6mi
Dew Point: 37°   Wind: 25mph
Humidity: 54%   Direction: 260°W
Pressure: 29.88"   Gusts: NA
Location:  37.56°S, 143.86°E
Report Text: YMAV 010800Z AUTO 26022KT 9999 // SCT054 SCT073 BKN090 12/03 Q1012
Loading
Personal Weather Stations






























Interactive Weather Map
Tropical Storm Tracking
New forecast layout! Learn more

10-Day Weather Forecast

Advertisements
Track Severe Weather on mobile